sensor_id;sensor_type;location;lat;lon;timestamp;P1;durP1;ratioP1;P2;durP2;ratioP2
3781;SDS011;6881;49.962;7.718;2023-08-06T00:00:39;10.43;;;6.87;;
3781;SDS011;6881;49.962;7.718;2023-08-06T00:03:04;7.80;;;7.00;;
3781;SDS011;6881;49.962;7.718;2023-08-06T00:05:30;7.10;;;5.87;;
3781;SDS011;6881;49.962;7.718;2023-08-06T00:07:55;7.13;;;6.43;;
3781;SDS011;6881;49.962;7.718;2023-08-06T00:10:20;11.10;;;5.73;;
3781;SDS011;6881;49.962;7.718;2023-08-06T00:12:46;7.57;;;6.07;;
3781;SDS011;6881;49.962;7.718;2023-08-06T00:15:11;7.33;;;5.90;;
3781;SDS011;6881;49.962;7.718;2023-08-06T00:17:37;6.90;;;5.73;;
3781;SDS011;6881;49.962;7.718;2023-08-06T00:20:03;6.83;;;5.33;;
3781;SDS011;6881;49.962;7.718;2023-08-06T00:22:35;5.67;;;4.90;;
3781;SDS011;6881;49.962;7.718;2023-08-06T00:25:01;6.97;;;5.50;;
3781;SDS011;6881;49.962;7.718;2023-08-06T00:27:27;6.63;;;5.90;;
3781;SDS011;6881;49.962;7.718;2023-08-06T00:29:52;6.60;;;5.90;;
3781;SDS011;6881;49.962;7.718;2023-08-06T00:32:18;5.57;;;5.07;;
3781;SDS011;6881;49.962;7.718;2023-08-06T00:34:43;6.00;;;4.83;;
3781;SDS011;6881;49.962;7.718;2023-08-06T00:37:08;6.40;;;5.57;;
3781;SDS011;6881;49.962;7.718;2023-08-06T00:39:34;6.53;;;5.40;;
3781;SDS011;6881;49.962;7.718;2023-08-06T00:41:59;7.10;;;6.40;;
3781;SDS011;6881;49.962;7.718;2023-08-06T00:44:24;6.47;;;5.40;;
3781;SDS011;6881;49.962;7.718;2023-08-06T00:46:50;4.83;;;4.33;;
3781;SDS011;6881;49.962;7.718;2023-08-06T00:49:15;6.07;;;5.07;;
3781;SDS011;6881;49.962;7.718;2023-08-06T00:51:40;8.00;;;5.67;;
3781;SDS011;6881;49.962;7.718;2023-08-06T00:54:07;5.13;;;4.63;;
3781;SDS011;6881;49.962;7.718;2023-08-06T00:56:34;7.50;;;5.40;;
3781;SDS011;6881;49.962;7.718;2023-08-06T00:59:00;6.77;;;5.70;;
3781;SDS011;6881;49.962;7.718;2023-08-06T01:01:26;5.87;;;5.27;;
3781;SDS011;6881;49.962;7.718;2023-08-06T01:03:52;6.23;;;5.60;;
3781;SDS011;6881;49.962;7.718;2023-08-06T01:06:19;7.20;;;6.00;;
3781;SDS011;6881;49.962;7.718;2023-08-06T01:11:15;6.53;;;5.93;;
3781;SDS011;6881;49.962;7.718;2023-08-06T01:13:47;6.53;;;5.83;;
3781;SDS011;6881;49.962;7.718;2023-08-06T01:16:17;6.90;;;5.13;;
3781;SDS011;6881;49.962;7.718;2023-08-06T01:18:43;6.10;;;4.87;;
3781;SDS011;6881;49.962;7.718;2023-08-06T01:21:17;4.97;;;4.50;;
3781;SDS011;6881;49.962;7.718;2023-08-06T01:23:43;7.57;;;5.57;;
3781;SDS011;6881;49.962;7.718;2023-08-06T01:28:45;7.40;;;5.47;;
3781;SDS011;6881;49.962;7.718;2023-08-06T01:31:27;7.03;;;5.00;;
3781;SDS011;6881;49.962;7.718;2023-08-06T01:34:00;6.97;;;4.80;;
3781;SDS011;6881;49.962;7.718;2023-08-06T01:36:26;5.90;;;5.40;;
3781;SDS011;6881;49.962;7.718;2023-08-06T01:38:52;6.03;;;5.10;;
3781;SDS011;6881;49.962;7.718;2023-08-06T01:41:18;7.07;;;5.13;;
3781;SDS011;6881;49.962;7.718;2023-08-06T01:43:43;6.27;;;5.50;;
3781;SDS011;6881;49.962;7.718;2023-08-06T01:46:09;6.47;;;5.20;;
3781;SDS011;6881;49.962;7.718;2023-08-06T01:48:34;7.30;;;5.43;;
3781;SDS011;6881;49.962;7.718;2023-08-06T01:50:59;4.90;;;4.47;;
3781;SDS011;6881;49.962;7.718;2023-08-06T01:53:24;8.70;;;4.60;;
3781;SDS011;6881;49.962;7.718;2023-08-06T01:55:50;5.30;;;4.80;;
3781;SDS011;6881;49.962;7.718;2023-08-06T01:58:15;6.20;;;4.53;;
3781;SDS011;6881;49.962;7.718;2023-08-06T02:00:40;5.87;;;4.40;;
3781;SDS011;6881;49.962;7.718;2023-08-06T02:03:06;7.77;;;5.43;;
3781;SDS011;6881;49.962;7.718;2023-08-06T02:05:31;5.70;;;5.20;;
3781;SDS011;6881;49.962;7.718;2023-08-06T02:07:56;7.13;;;5.50;;
3781;SDS011;6881;49.962;7.718;2023-08-06T02:10:22;5.70;;;5.20;;
3781;SDS011;6881;49.962;7.718;2023-08-06T02:12:47;6.17;;;4.70;;
3781;SDS011;6881;49.962;7.718;2023-08-06T02:15:12;5.57;;;4.60;;
3781;SDS011;6881;49.962;7.718;2023-08-06T02:17:38;7.03;;;5.33;;
3781;SDS011;6881;49.962;7.718;2023-08-06T02:20:03;5.93;;;5.33;;
3781;SDS011;6881;49.962;7.718;2023-08-06T02:22:29;7.47;;;5.17;;
3781;SDS011;6881;49.962;7.718;2023-08-06T02:24:54;6.60;;;4.80;;
3781;SDS011;6881;49.962;7.718;2023-08-06T02:27:19;8.17;;;4.93;;
3781;SDS011;6881;49.962;7.718;2023-08-06T02:29:45;4.60;;;4.00;;
3781;SDS011;6881;49.962;7.718;2023-08-06T02:32:10;6.63;;;4.70;;
3781;SDS011;6881;49.962;7.718;2023-08-06T02:34:35;7.00;;;5.30;;
3781;SDS011;6881;49.962;7.718;2023-08-06T02:37:01;5.00;;;4.50;;
3781;SDS011;6881;49.962;7.718;2023-08-06T02:39:26;6.90;;;4.83;;
3781;SDS011;6881;49.962;7.718;2023-08-06T02:41:51;10.47;;;4.50;;
3781;SDS011;6881;49.962;7.718;2023-08-06T02:44:16;5.10;;;4.63;;
3781;SDS011;6881;49.962;7.718;2023-08-06T02:46:43;6.50;;;5.00;;
3781;SDS011;6881;49.962;7.718;2023-08-06T02:49:09;7.23;;;4.93;;
3781;SDS011;6881;49.962;7.718;2023-08-06T02:51:34;10.07;;;5.00;;
3781;SDS011;6881;49.962;7.718;2023-08-06T02:54:00;7.57;;;4.70;;
3781;SDS011;6881;49.962;7.718;2023-08-06T02:56:25;7.20;;;5.20;;
3781;SDS011;6881;49.962;7.718;2023-08-06T02:58:51;5.20;;;4.70;;
3781;SDS011;6881;49.962;7.718;2023-08-06T03:01:16;8.57;;;5.17;;
3781;SDS011;6881;49.962;7.718;2023-08-06T03:03:41;9.03;;;4.60;;
3781;SDS011;6881;49.962;7.718;2023-08-06T03:06:07;7.40;;;5.53;;
3781;SDS011;6881;49.962;7.718;2023-08-06T03:08:32;7.90;;;4.60;;
3781;SDS011;6881;49.962;7.718;2023-08-06T03:10:57;6.37;;;5.23;;
3781;SDS011;6881;49.962;7.718;2023-08-06T03:13:23;6.80;;;4.87;;
3781;SDS011;6881;49.962;7.718;2023-08-06T03:15:54;4.43;;;4.03;;
3781;SDS011;6881;49.962;7.718;2023-08-06T03:18:21;5.37;;;4.60;;
3781;SDS011;6881;49.962;7.718;2023-08-06T03:20:46;6.70;;;4.63;;
3781;SDS011;6881;49.962;7.718;2023-08-06T03:23:12;5.10;;;4.50;;
3781;SDS011;6881;49.962;7.718;2023-08-06T03:25:37;4.60;;;4.20;;
3781;SDS011;6881;49.962;7.718;2023-08-06T03:28:02;8.27;;;4.53;;
3781;SDS011;6881;49.962;7.718;2023-08-06T03:30:28;7.00;;;4.37;;
3781;SDS011;6881;49.962;7.718;2023-08-06T03:32:53;5.10;;;3.97;;
3781;SDS011;6881;49.962;7.718;2023-08-06T03:35:18;4.13;;;3.73;;
3781;SDS011;6881;49.962;7.718;2023-08-06T03:37:44;4.90;;;3.60;;
3781;SDS011;6881;49.962;7.718;2023-08-06T03:40:09;3.90;;;3.53;;
3781;SDS011;6881;49.962;7.718;2023-08-06T03:42:35;8.30;;;3.57;;
3781;SDS011;6881;49.962;7.718;2023-08-06T03:45:00;3.30;;;2.80;;
3781;SDS011;6881;49.962;7.718;2023-08-06T03:47:25;5.20;;;3.20;;
3781;SDS011;6881;49.962;7.718;2023-08-06T03:49:51;4.80;;;3.60;;
3781;SDS011;6881;49.962;7.718;2023-08-06T03:52:16;6.70;;;3.27;;
3781;SDS011;6881;49.962;7.718;2023-08-06T03:54:41;3.67;;;2.60;;
3781;SDS011;6881;49.962;7.718;2023-08-06T03:57:08;3.90;;;2.83;;
3781;SDS011;6881;49.962;7.718;2023-08-06T03:59:33;3.90;;;2.57;;
3781;SDS011;6881;49.962;7.718;2023-08-06T04:01:58;5.83;;;2.70;;
3781;SDS011;6881;49.962;7.718;2023-08-06T04:04:24;4.27;;;3.00;;
3781;SDS011;6881;49.962;7.718;2023-08-06T04:06:49;6.37;;;2.67;;
3781;SDS011;6881;49.962;7.718;2023-08-06T04:09:14;4.20;;;2.60;;
3781;SDS011;6881;49.962;7.718;2023-08-06T04:11:40;5.53;;;2.30;;
3781;SDS011;6881;49.962;7.718;2023-08-06T04:14:05;2.23;;;1.30;;
3781;SDS011;6881;49.962;7.718;2023-08-06T04:16:30;4.60;;;2.30;;
3781;SDS011;6881;49.962;7.718;2023-08-06T04:18:55;4.00;;;2.40;;
3781;SDS011;6881;49.962;7.718;2023-08-06T04:21:21;2.13;;;1.40;;
3781;SDS011;6881;49.962;7.718;2023-08-06T04:23:46;4.03;;;1.70;;
3781;SDS011;6881;49.962;7.718;2023-08-06T04:26:12;3.20;;;1.50;;
3781;SDS011;6881;49.962;7.718;2023-08-06T04:28:37;3.20;;;1.73;;
3781;SDS011;6881;49.962;7.718;2023-08-06T04:31:02;2.83;;;1.83;;
3781;SDS011;6881;49.962;7.718;2023-08-06T04:33:27;6.20;;;1.60;;
3781;SDS011;6881;49.962;7.718;2023-08-06T04:35:53;3.10;;;1.70;;
3781;SDS011;6881;49.962;7.718;2023-08-06T04:38:20;1.87;;;1.67;;
3781;SDS011;6881;49.962;7.718;2023-08-06T04:40:45;1.57;;;1.47;;
3781;SDS011;6881;49.962;7.718;2023-08-06T04:43:11;1.83;;;1.37;;
3781;SDS011;6881;49.962;7.718;2023-08-06T04:45:36;1.70;;;1.33;;
3781;SDS011;6881;49.962;7.718;2023-08-06T04:48:01;2.37;;;1.33;;
3781;SDS011;6881;49.962;7.718;2023-08-06T04:50:27;2.03;;;1.20;;
3781;SDS011;6881;49.962;7.718;2023-08-06T04:52:52;1.57;;;0.90;;
3781;SDS011;6881;49.962;7.718;2023-08-06T04:55:17;1.67;;;0.80;;
3781;SDS011;6881;49.962;7.718;2023-08-06T04:57:42;1.87;;;0.90;;
3781;SDS011;6881;49.962;7.718;2023-08-06T05:00:08;0.90;;;0.50;;
3781;SDS011;6881;49.962;7.718;2023-08-06T05:02:33;1.97;;;0.70;;
3781;SDS011;6881;49.962;7.718;2023-08-06T05:04:59;0.90;;;0.50;;
3781;SDS011;6881;49.962;7.718;2023-08-06T05:07:25;1.63;;;0.63;;
3781;SDS011;6881;49.962;7.718;2023-08-06T05:09:50;0.80;;;0.40;;
3781;SDS011;6881;49.962;7.718;2023-08-06T05:12:15;0.70;;;0.30;;
3781;SDS011;6881;49.962;7.718;2023-08-06T05:14:40;0.70;;;0.30;;
3781;SDS011;6881;49.962;7.718;2023-08-06T05:17:06;0.90;;;0.40;;
3781;SDS011;6881;49.962;7.718;2023-08-06T05:19:31;0.83;;;0.30;;
3781;SDS011;6881;49.962;7.718;2023-08-06T05:21:56;0.80;;;0.40;;
3781;SDS011;6881;49.962;7.718;2023-08-06T05:24:22;1.83;;;0.30;;
3781;SDS011;6881;49.962;7.718;2023-08-06T05:26:47;2.03;;;0.40;;
3781;SDS011;6881;49.962;7.718;2023-08-06T05:29:12;2.07;;;0.50;;
3781;SDS011;6881;49.962;7.718;2023-08-06T05:31:38;1.27;;;0.37;;
3781;SDS011;6881;49.962;7.718;2023-08-06T05:34:03;1.00;;;0.40;;
3781;SDS011;6881;49.962;7.718;2023-08-06T05:36:28;0.70;;;0.40;;
3781;SDS011;6881;49.962;7.718;2023-08-06T05:38:54;0.70;;;0.30;;
3781;SDS011;6881;49.962;7.718;2023-08-06T05:41:19;0.70;;;0.30;;
3781;SDS011;6881;49.962;7.718;2023-08-06T05:43:44;7.33;;;0.70;;
3781;SDS011;6881;49.962;7.718;2023-08-06T05:46:10;0.90;;;0.40;;
3781;SDS011;6881;49.962;7.718;2023-08-06T05:48:35;0.87;;;0.30;;
3781;SDS011;6881;49.962;7.718;2023-08-06T05:51:00;0.90;;;0.40;;
3781;SDS011;6881;49.962;7.718;2023-08-06T05:53:26;4.27;;;0.60;;
3781;SDS011;6881;49.962;7.718;2023-08-06T05:55:51;0.83;;;0.40;;
3781;SDS011;6881;49.962;7.718;2023-08-06T05:58:16;1.20;;;0.53;;
3781;SDS011;6881;49.962;7.718;2023-08-06T06:00:42;0.80;;;0.30;;
3781;SDS011;6881;49.962;7.718;2023-08-06T06:03:07;0.90;;;0.50;;
3781;SDS011;6881;49.962;7.718;2023-08-06T06:05:33;0.93;;;0.50;;
3781;SDS011;6881;49.962;7.718;2023-08-06T06:07:58;1.10;;;0.33;;
3781;SDS011;6881;49.962;7.718;2023-08-06T06:10:23;1.17;;;0.50;;
3781;SDS011;6881;49.962;7.718;2023-08-06T06:12:49;1.00;;;0.40;;
3781;SDS011;6881;49.962;7.718;2023-08-06T06:15:14;0.90;;;0.30;;
3781;SDS011;6881;49.962;7.718;2023-08-06T06:17:39;0.90;;;0.43;;
3781;SDS011;6881;49.962;7.718;2023-08-06T06:20:05;0.90;;;0.43;;
3781;SDS011;6881;49.962;7.718;2023-08-06T06:22:31;0.87;;;0.40;;
3781;SDS011;6881;49.962;7.718;2023-08-06T06:24:56;0.80;;;0.40;;
3781;SDS011;6881;49.962;7.718;2023-08-06T06:27:21;0.70;;;0.30;;
3781;SDS011;6881;49.962;7.718;2023-08-06T06:29:47;13.60;;;0.77;;
3781;SDS011;6881;49.962;7.718;2023-08-06T06:32:12;0.80;;;0.40;;
3781;SDS011;6881;49.962;7.718;2023-08-06T06:34:37;2.17;;;0.40;;
3781;SDS011;6881;49.962;7.718;2023-08-06T06:37:03;0.90;;;0.50;;
3781;SDS011;6881;49.962;7.718;2023-08-06T06:39:28;1.57;;;0.60;;
3781;SDS011;6881;49.962;7.718;2023-08-06T06:41:54;1.20;;;0.50;;
3781;SDS011;6881;49.962;7.718;2023-08-06T06:44:19;1.10;;;0.50;;
3781;SDS011;6881;49.962;7.718;2023-08-06T06:46:45;2.13;;;0.60;;
3781;SDS011;6881;49.962;7.718;2023-08-06T06:49:11;0.90;;;0.57;;
3781;SDS011;6881;49.962;7.718;2023-08-06T06:51:36;3.10;;;1.20;;
3781;SDS011;6881;49.962;7.718;2023-08-06T06:54:01;1.10;;;0.67;;
3781;SDS011;6881;49.962;7.718;2023-08-06T06:56:26;1.23;;;0.80;;
3781;SDS011;6881;49.962;7.718;2023-08-06T06:58:52;1.53;;;0.70;;
3781;SDS011;6881;49.962;7.718;2023-08-06T07:01:17;1.97;;;1.17;;
3781;SDS011;6881;49.962;7.718;2023-08-06T07:03:42;1.50;;;0.77;;
3781;SDS011;6881;49.962;7.718;2023-08-06T07:06:08;2.50;;;0.83;;
3781;SDS011;6881;49.962;7.718;2023-08-06T07:08:33;1.27;;;0.80;;
3781;SDS011;6881;49.962;7.718;2023-08-06T07:11:05;1.20;;;0.97;;
3781;SDS011;6881;49.962;7.718;2023-08-06T07:13:31;0.97;;;0.73;;
3781;SDS011;6881;49.962;7.718;2023-08-06T07:15:57;1.30;;;0.90;;
3781;SDS011;6881;49.962;7.718;2023-08-06T07:18:22;1.97;;;0.90;;
3781;SDS011;6881;49.962;7.718;2023-08-06T07:20:51;2.50;;;0.93;;
3781;SDS011;6881;49.962;7.718;2023-08-06T07:23:18;1.53;;;0.97;;
3781;SDS011;6881;49.962;7.718;2023-08-06T07:25:45;1.20;;;0.90;;
3781;SDS011;6881;49.962;7.718;2023-08-06T07:28:11;1.53;;;1.00;;
3781;SDS011;6881;49.962;7.718;2023-08-06T07:30:40;2.50;;;0.80;;
3781;SDS011;6881;49.962;7.718;2023-08-06T07:33:06;1.10;;;0.80;;
3781;SDS011;6881;49.962;7.718;2023-08-06T07:35:31;1.00;;;0.70;;
3781;SDS011;6881;49.962;7.718;2023-08-06T07:37:56;5.73;;;0.77;;
3781;SDS011;6881;49.962;7.718;2023-08-06T07:40:22;1.60;;;0.83;;
3781;SDS011;6881;49.962;7.718;2023-08-06T07:42:47;1.50;;;0.80;;
3781;SDS011;6881;49.962;7.718;2023-08-06T07:45:12;1.23;;;0.80;;
3781;SDS011;6881;49.962;7.718;2023-08-06T07:47:39;1.10;;;0.70;;
3781;SDS011;6881;49.962;7.718;2023-08-06T07:50:04;1.10;;;0.60;;
3781;SDS011;6881;49.962;7.718;2023-08-06T07:52:30;1.07;;;0.70;;
3781;SDS011;6881;49.962;7.718;2023-08-06T07:54:55;1.13;;;0.60;;
3781;SDS011;6881;49.962;7.718;2023-08-06T07:57:20;1.30;;;0.77;;
3781;SDS011;6881;49.962;7.718;2023-08-06T07:59:45;1.30;;;0.67;;
3781;SDS011;6881;49.962;7.718;2023-08-06T08:02:11;1.67;;;0.70;;
3781;SDS011;6881;49.962;7.718;2023-08-06T08:04:36;1.47;;;0.60;;
3781;SDS011;6881;49.962;7.718;2023-08-06T08:07:01;1.10;;;0.47;;
3781;SDS011;6881;49.962;7.718;2023-08-06T08:09:27;1.20;;;0.63;;
3781;SDS011;6881;49.962;7.718;2023-08-06T08:11:53;0.90;;;0.53;;
3781;SDS011;6881;49.962;7.718;2023-08-06T08:14:18;0.97;;;0.57;;
3781;SDS011;6881;49.962;7.718;2023-08-06T08:16:43;1.00;;;0.50;;
3781;SDS011;6881;49.962;7.718;2023-08-06T08:19:08;0.90;;;0.60;;
3781;SDS011;6881;49.962;7.718;2023-08-06T08:21:34;0.90;;;0.50;;
3781;SDS011;6881;49.962;7.718;2023-08-06T08:23:59;1.13;;;0.50;;
3781;SDS011;6881;49.962;7.718;2023-08-06T08:26:25;0.97;;;0.50;;
3781;SDS011;6881;49.962;7.718;2023-08-06T08:28:52;1.07;;;0.53;;
3781;SDS011;6881;49.962;7.718;2023-08-06T08:31:18;1.23;;;0.60;;
3781;SDS011;6881;49.962;7.718;2023-08-06T08:33:43;0.97;;;0.60;;
3781;SDS011;6881;49.962;7.718;2023-08-06T08:36:08;0.90;;;0.53;;
3781;SDS011;6881;49.962;7.718;2023-08-06T08:38:34;1.00;;;0.57;;
3781;SDS011;6881;49.962;7.718;2023-08-06T08:41:00;1.10;;;0.63;;
3781;SDS011;6881;49.962;7.718;2023-08-06T08:43:25;0.90;;;0.60;;
3781;SDS011;6881;49.962;7.718;2023-08-06T08:45:52;2.10;;;0.73;;
3781;SDS011;6881;49.962;7.718;2023-08-06T08:48:23;0.90;;;0.60;;
3781;SDS011;6881;49.962;7.718;2023-08-06T08:50:49;1.00;;;0.80;;
3781;SDS011;6881;49.962;7.718;2023-08-06T08:53:15;1.47;;;0.90;;
3781;SDS011;6881;49.962;7.718;2023-08-06T08:55:42;1.23;;;0.80;;
3781;SDS011;6881;49.962;7.718;2023-08-06T08:58:09;1.10;;;0.60;;
3781;SDS011;6881;49.962;7.718;2023-08-06T09:00:35;1.20;;;0.67;;
3781;SDS011;6881;49.962;7.718;2023-08-06T09:03:01;1.20;;;0.90;;
3781;SDS011;6881;49.962;7.718;2023-08-06T09:05:28;2.07;;;0.90;;
3781;SDS011;6881;49.962;7.718;2023-08-06T09:07:54;1.10;;;0.70;;
3781;SDS011;6881;49.962;7.718;2023-08-06T09:10:20;1.00;;;0.70;;
3781;SDS011;6881;49.962;7.718;2023-08-06T09:12:49;1.37;;;0.63;;
3781;SDS011;6881;49.962;7.718;2023-08-06T09:15:16;2.27;;;0.70;;
3781;SDS011;6881;49.962;7.718;2023-08-06T09:17:41;1.03;;;0.63;;
3781;SDS011;6881;49.962;7.718;2023-08-06T09:20:10;0.90;;;0.50;;
3781;SDS011;6881;49.962;7.718;2023-08-06T09:22:36;0.90;;;0.40;;
3781;SDS011;6881;49.962;7.718;2023-08-06T09:25:02;1.00;;;0.50;;
3781;SDS011;6881;49.962;7.718;2023-08-06T09:27:29;0.80;;;0.50;;
3781;SDS011;6881;49.962;7.718;2023-08-06T09:29:54;0.90;;;0.50;;
3781;SDS011;6881;49.962;7.718;2023-08-06T09:32:19;1.70;;;0.63;;
3781;SDS011;6881;49.962;7.718;2023-08-06T09:34:45;0.97;;;0.50;;
3781;SDS011;6881;49.962;7.718;2023-08-06T09:37:11;1.40;;;0.50;;
3781;SDS011;6881;49.962;7.718;2023-08-06T09:39:39;1.00;;;0.73;;
3781;SDS011;6881;49.962;7.718;2023-08-06T09:42:07;1.53;;;0.83;;
3781;SDS011;6881;49.962;7.718;2023-08-06T09:44:33;1.97;;;0.60;;
3781;SDS011;6881;49.962;7.718;2023-08-06T09:47:00;0.80;;;0.53;;
3781;SDS011;6881;49.962;7.718;2023-08-06T09:49:48;0.80;;;0.50;;
3781;SDS011;6881;49.962;7.718;2023-08-06T09:52:13;0.80;;;0.50;;
3781;SDS011;6881;49.962;7.718;2023-08-06T09:54:38;1.77;;;1.13;;
3781;SDS011;6881;49.962;7.718;2023-08-06T09:57:04;2.63;;;0.47;;
3781;SDS011;6881;49.962;7.718;2023-08-06T09:59:30;1.27;;;0.50;;
3781;SDS011;6881;49.962;7.718;2023-08-06T10:01:56;2.40;;;0.40;;
3781;SDS011;6881;49.962;7.718;2023-08-06T10:04:21;0.80;;;0.37;;
3781;SDS011;6881;49.962;7.718;2023-08-06T10:06:47;1.00;;;0.40;;
3781;SDS011;6881;49.962;7.718;2023-08-06T10:09:13;0.90;;;0.40;;
3781;SDS011;6881;49.962;7.718;2023-08-06T10:11:38;1.80;;;0.40;;
3781;SDS011;6881;49.962;7.718;2023-08-06T10:14:08;0.97;;;0.30;;
3781;SDS011;6881;49.962;7.718;2023-08-06T10:16:36;1.47;;;0.30;;
3781;SDS011;6881;49.962;7.718;2023-08-06T10:19:04;0.80;;;0.30;;
3781;SDS011;6881;49.962;7.718;2023-08-06T10:21:30;0.80;;;0.40;;
3781;SDS011;6881;49.962;7.718;2023-08-06T10:23:56;0.90;;;0.37;;
3781;SDS011;6881;49.962;7.718;2023-08-06T10:26:25;0.90;;;0.50;;
3781;SDS011;6881;49.962;7.718;2023-08-06T10:28:53;1.00;;;0.50;;
3781;SDS011;6881;49.962;7.718;2023-08-06T10:31:19;0.80;;;0.40;;
3781;SDS011;6881;49.962;7.718;2023-08-06T10:33:45;0.90;;;0.50;;
3781;SDS011;6881;49.962;7.718;2023-08-06T10:36:12;1.17;;;0.40;;
3781;SDS011;6881;49.962;7.718;2023-08-06T10:38:47;0.90;;;0.40;;
3781;SDS011;6881;49.962;7.718;2023-08-06T10:41:22;0.97;;;0.50;;
3781;SDS011;6881;49.962;7.718;2023-08-06T10:43:49;1.40;;;0.63;;
3781;SDS011;6881;49.962;7.718;2023-08-06T10:46:26;2.10;;;0.93;;
3781;SDS011;6881;49.962;7.718;2023-08-06T10:48:52;1.73;;;0.53;;
3781;SDS011;6881;49.962;7.718;2023-08-06T10:51:17;1.00;;;0.63;;
3781;SDS011;6881;49.962;7.718;2023-08-06T10:53:43;1.53;;;0.63;;
3781;SDS011;6881;49.962;7.718;2023-08-06T10:56:16;1.10;;;0.60;;
3781;SDS011;6881;49.962;7.718;2023-08-06T10:58:43;1.10;;;0.50;;
3781;SDS011;6881;49.962;7.718;2023-08-06T11:01:10;0.97;;;0.60;;
3781;SDS011;6881;49.962;7.718;2023-08-06T11:03:36;1.10;;;0.70;;
3781;SDS011;6881;49.962;7.718;2023-08-06T11:06:03;1.33;;;0.50;;
3781;SDS011;6881;49.962;7.718;2023-08-06T11:08:32;1.97;;;1.30;;
3781;SDS011;6881;49.962;7.718;2023-08-06T11:11:11;1.90;;;0.87;;
3781;SDS011;6881;49.962;7.718;2023-08-06T11:13:42;1.97;;;1.00;;
3781;SDS011;6881;49.962;7.718;2023-08-06T11:16:12;4.30;;;0.97;;
3781;SDS011;6881;49.962;7.718;2023-08-06T11:18:38;1.90;;;0.90;;
3781;SDS011;6881;49.962;7.718;2023-08-06T11:21:05;1.70;;;1.10;;
3781;SDS011;6881;49.962;7.718;2023-08-06T11:23:30;1.10;;;0.73;;
3781;SDS011;6881;49.962;7.718;2023-08-06T11:25:56;1.20;;;0.80;;
3781;SDS011;6881;49.962;7.718;2023-08-06T11:28:21;1.10;;;0.80;;
3781;SDS011;6881;49.962;7.718;2023-08-06T11:30:47;1.40;;;1.00;;
3781;SDS011;6881;49.962;7.718;2023-08-06T11:33:13;2.90;;;0.80;;
3781;SDS011;6881;49.962;7.718;2023-08-06T11:35:38;1.30;;;0.70;;
3781;SDS011;6881;49.962;7.718;2023-08-06T11:38:05;1.97;;;1.00;;
3781;SDS011;6881;49.962;7.718;2023-08-06T11:40:30;1.40;;;0.97;;
3781;SDS011;6881;49.962;7.718;2023-08-06T11:42:56;1.40;;;0.87;;
3781;SDS011;6881;49.962;7.718;2023-08-06T11:45:23;2.23;;;1.10;;
3781;SDS011;6881;49.962;7.718;2023-08-06T11:47:49;1.90;;;1.60;;
3781;SDS011;6881;49.962;7.718;2023-08-06T11:50:23;1.70;;;1.40;;
3781;SDS011;6881;49.962;7.718;2023-08-06T11:52:49;3.57;;;1.37;;
3781;SDS011;6881;49.962;7.718;2023-08-06T11:55:19;1.90;;;1.27;;
3781;SDS011;6881;49.962;7.718;2023-08-06T11:57:48;1.30;;;1.10;;
3781;SDS011;6881;49.962;7.718;2023-08-06T12:00:13;3.13;;;1.50;;
3781;SDS011;6881;49.962;7.718;2023-08-06T12:02:39;1.20;;;1.00;;
3781;SDS011;6881;49.962;7.718;2023-08-06T12:07:40;1.83;;;1.30;;
3781;SDS011;6881;49.962;7.718;2023-08-06T12:10:06;1.10;;;0.80;;
3781;SDS011;6881;49.962;7.718;2023-08-06T12:12:32;1.50;;;1.27;;
3781;SDS011;6881;49.962;7.718;2023-08-06T12:14:57;1.30;;;1.07;;
3781;SDS011;6881;49.962;7.718;2023-08-06T12:17:23;1.20;;;0.80;;
3781;SDS011;6881;49.962;7.718;2023-08-06T12:19:49;1.20;;;1.07;;
3781;SDS011;6881;49.962;7.718;2023-08-06T12:22:14;1.40;;;1.00;;
3781;SDS011;6881;49.962;7.718;2023-08-06T12:24:41;1.80;;;1.23;;
3781;SDS011;6881;49.962;7.718;2023-08-06T12:27:06;1.77;;;1.10;;
3781;SDS011;6881;49.962;7.718;2023-08-06T12:29:32;1.40;;;1.10;;
3781;SDS011;6881;49.962;7.718;2023-08-06T12:31:57;1.70;;;1.00;;
3781;SDS011;6881;49.962;7.718;2023-08-06T12:34:22;1.13;;;0.80;;
3781;SDS011;6881;49.962;7.718;2023-08-06T12:36:48;2.67;;;1.30;;
3781;SDS011;6881;49.962;7.718;2023-08-06T12:39:13;1.20;;;0.90;;
3781;SDS011;6881;49.962;7.718;2023-08-06T12:41:38;1.93;;;1.23;;
3781;SDS011;6881;49.962;7.718;2023-08-06T12:44:04;1.77;;;1.03;;
3781;SDS011;6881;49.962;7.718;2023-08-06T12:46:29;1.20;;;0.80;;
3781;SDS011;6881;49.962;7.718;2023-08-06T12:48:55;3.73;;;1.33;;
3781;SDS011;6881;49.962;7.718;2023-08-06T12:51:22;1.50;;;0.87;;
3781;SDS011;6881;49.962;7.718;2023-08-06T12:53:47;2.63;;;1.17;;
3781;SDS011;6881;49.962;7.718;2023-08-06T12:56:12;1.47;;;0.93;;
3781;SDS011;6881;49.962;7.718;2023-08-06T12:58:38;2.70;;;0.80;;
3781;SDS011;6881;49.962;7.718;2023-08-06T13:01:04;1.30;;;0.90;;
3781;SDS011;6881;49.962;7.718;2023-08-06T13:03:30;1.40;;;0.93;;
3781;SDS011;6881;49.962;7.718;2023-08-06T13:05:55;1.20;;;0.70;;
3781;SDS011;6881;49.962;7.718;2023-08-06T13:08:20;1.40;;;0.90;;
3781;SDS011;6881;49.962;7.718;2023-08-06T13:10:46;1.87;;;0.80;;
3781;SDS011;6881;49.962;7.718;2023-08-06T13:13:11;2.33;;;0.70;;
3781;SDS011;6881;49.962;7.718;2023-08-06T13:15:36;1.73;;;0.90;;
3781;SDS011;6881;49.962;7.718;2023-08-06T13:18:02;1.00;;;0.77;;
3781;SDS011;6881;49.962;7.718;2023-08-06T13:20:29;1.13;;;0.83;;
3781;SDS011;6881;49.962;7.718;2023-08-06T13:22:55;1.50;;;1.10;;
3781;SDS011;6881;49.962;7.718;2023-08-06T13:25:21;4.17;;;0.90;;
3781;SDS011;6881;49.962;7.718;2023-08-06T13:27:46;1.57;;;0.70;;
3781;SDS011;6881;49.962;7.718;2023-08-06T13:30:12;1.43;;;0.70;;
3781;SDS011;6881;49.962;7.718;2023-08-06T13:32:38;0.97;;;0.60;;
3781;SDS011;6881;49.962;7.718;2023-08-06T13:35:04;2.10;;;1.30;;
3781;SDS011;6881;49.962;7.718;2023-08-06T13:37:29;3.17;;;1.93;;
3781;SDS011;6881;49.962;7.718;2023-08-06T13:39:55;3.20;;;1.10;;
3781;SDS011;6881;49.962;7.718;2023-08-06T13:42:20;2.37;;;0.80;;
3781;SDS011;6881;49.962;7.718;2023-08-06T13:44:45;1.23;;;0.80;;
3781;SDS011;6881;49.962;7.718;2023-08-06T13:47:11;2.53;;;0.90;;
3781;SDS011;6881;49.962;7.718;2023-08-06T13:49:36;1.40;;;1.00;;
3781;SDS011;6881;49.962;7.718;2023-08-06T13:52:01;1.30;;;0.80;;
3781;SDS011;6881;49.962;7.718;2023-08-06T13:54:26;1.77;;;0.73;;
3781;SDS011;6881;49.962;7.718;2023-08-06T13:56:52;1.30;;;0.90;;
3781;SDS011;6881;49.962;7.718;2023-08-06T13:59:18;3.43;;;1.00;;
3781;SDS011;6881;49.962;7.718;2023-08-06T14:01:44;1.20;;;0.70;;
3781;SDS011;6881;49.962;7.718;2023-08-06T14:04:10;4.13;;;0.70;;
3781;SDS011;6881;49.962;7.718;2023-08-06T14:06:35;0.93;;;0.60;;
3781;SDS011;6881;49.962;7.718;2023-08-06T14:09:00;1.30;;;0.80;;
3781;SDS011;6881;49.962;7.718;2023-08-06T14:11:26;3.80;;;0.73;;
3781;SDS011;6881;49.962;7.718;2023-08-06T14:13:51;1.00;;;0.60;;
3781;SDS011;6881;49.962;7.718;2023-08-06T14:16:17;0.97;;;0.60;;
3781;SDS011;6881;49.962;7.718;2023-08-06T14:18:42;3.43;;;0.53;;
3781;SDS011;6881;49.962;7.718;2023-08-06T14:21:07;0.80;;;0.40;;
3781;SDS011;6881;49.962;7.718;2023-08-06T14:23:33;1.20;;;0.50;;
3781;SDS011;6881;49.962;7.718;2023-08-06T14:25:58;1.87;;;0.60;;
3781;SDS011;6881;49.962;7.718;2023-08-06T14:28:24;0.90;;;0.40;;
3781;SDS011;6881;49.962;7.718;2023-08-06T14:30:49;1.40;;;0.60;;
3781;SDS011;6881;49.962;7.718;2023-08-06T14:33:14;1.00;;;0.50;;
3781;SDS011;6881;49.962;7.718;2023-08-06T14:35:40;0.93;;;0.43;;
3781;SDS011;6881;49.962;7.718;2023-08-06T14:38:05;1.60;;;0.90;;
3781;SDS011;6881;49.962;7.718;2023-08-06T14:40:30;1.20;;;0.67;;
3781;SDS011;6881;49.962;7.718;2023-08-06T14:43:00;1.70;;;0.90;;
3781;SDS011;6881;49.962;7.718;2023-08-06T14:45:26;1.77;;;0.97;;
3781;SDS011;6881;49.962;7.718;2023-08-06T14:47:51;1.10;;;0.70;;
3781;SDS011;6881;49.962;7.718;2023-08-06T14:50:17;1.67;;;0.87;;
3781;SDS011;6881;49.962;7.718;2023-08-06T14:52:42;2.43;;;0.87;;
3781;SDS011;6881;49.962;7.718;2023-08-06T14:55:07;1.00;;;0.60;;
3781;SDS011;6881;49.962;7.718;2023-08-06T14:57:33;2.87;;;0.87;;
3781;SDS011;6881;49.962;7.718;2023-08-06T14:59:58;1.53;;;0.80;;
3781;SDS011;6881;49.962;7.718;2023-08-06T15:02:23;0.90;;;0.60;;
3781;SDS011;6881;49.962;7.718;2023-08-06T15:04:49;1.30;;;0.70;;
3781;SDS011;6881;49.962;7.718;2023-08-06T15:07:15;1.07;;;0.60;;
3781;SDS011;6881;49.962;7.718;2023-08-06T15:09:40;1.97;;;0.60;;
3781;SDS011;6881;49.962;7.718;2023-08-06T15:12:05;1.37;;;0.80;;
3781;SDS011;6881;49.962;7.718;2023-08-06T15:14:31;1.10;;;0.73;;